createdAt,value
2018-01-13T00:00:43.249Z,1018.14
2018-01-13T00:01:43.240Z,1018.13
2018-01-13T00:02:43.232Z,1018.13
2018-01-13T00:03:43.222Z,1018.09
2018-01-13T00:04:43.216Z,1018.08
2018-01-13T00:05:43.208Z,1018.07
2018-01-13T00:06:43.208Z,1018.08
2018-01-13T00:07:43.197Z,1018.05
2018-01-13T00:08:43.190Z,1018.05
2018-01-13T00:09:43.182Z,1018.02
2018-01-13T00:10:43.177Z,1018.05
2018-01-13T00:11:43.168Z,1018.01
2018-01-13T00:12:43.158Z,1018.02
2018-01-13T00:13:43.155Z,1017.99
2018-01-13T00:14:43.148Z,1018.03
2018-01-13T00:15:43.140Z,1018.03
2018-01-13T00:16:43.137Z,1017.99
2018-01-13T00:17:43.125Z,1018.00
2018-01-13T00:18:43.119Z,1018.06
2018-01-13T00:19:43.112Z,1018.01
2018-01-13T00:20:43.108Z,1018.03
2018-01-13T00:21:43.100Z,1018.04
2018-01-13T00:22:43.091Z,1018.02
2018-01-13T00:23:43.086Z,1018.02
2018-01-13T00:24:43.079Z,1017.95
2018-01-13T00:25:43.073Z,1018.01
2018-01-13T00:26:43.069Z,1018.01
2018-01-13T00:27:43.059Z,1017.99
2018-01-13T00:28:43.050Z,1018.00
2018-01-13T00:29:43.043Z,1018.00
2018-01-13T00:30:43.037Z,1018.00
2018-01-13T00:31:43.028Z,1018.01
2018-01-13T00:32:43.022Z,1018.01
2018-01-13T00:33:43.012Z,1018.02
2018-01-13T00:34:43.009Z,1017.98
2018-01-13T00:35:43.041Z,1017.98
2018-01-13T00:36:42.996Z,1018.02
2018-01-13T00:37:42.983Z,1018.05
2018-01-13T00:38:42.980Z,1018.04
2018-01-13T00:39:42.975Z,1018.03
2018-01-13T00:40:42.971Z,1018.05
2018-01-13T00:41:42.957Z,1018.05
2018-01-13T00:42:42.952Z,1018.02
2018-01-13T00:43:42.942Z,1018.03
2018-01-13T00:44:42.941Z,1018.03
2018-01-13T00:45:42.934Z,1018.02
2018-01-13T00:46:42.928Z,1018.03
2018-01-13T00:47:42.915Z,1018.02
2018-01-13T00:48:42.914Z,1018.02
2018-01-13T00:49:42.907Z,1017.99
2018-01-13T00:50:42.899Z,1017.97
2018-01-13T00:51:42.888Z,1018.00
2018-01-13T00:52:42.885Z,1017.96
2018-01-13T00:53:42.874Z,1017.96
2018-01-13T00:54:42.874Z,1017.96
2018-01-13T00:55:42.862Z,1017.96
2018-01-13T00:56:42.855Z,1017.97
2018-01-13T00:57:42.847Z,1017.96
2018-01-13T00:58:42.841Z,1017.98
2018-01-13T00:59:42.836Z,1017.95
2018-01-13T01:00:42.826Z,1017.92
2018-01-13T01:01:42.820Z,1017.94
2018-01-13T01:02:42.818Z,1017.94
2018-01-13T01:03:42.805Z,1017.92
2018-01-13T01:04:42.800Z,1017.90
2018-01-13T01:05:42.795Z,1017.95
2018-01-13T01:06:42.796Z,1018.00
2018-01-13T01:07:42.776Z,1017.95
2018-01-13T01:08:42.770Z,1017.99
2018-01-13T01:09:42.768Z,1017.95
2018-01-13T01:10:42.759Z,1018.03
2018-01-13T01:11:42.754Z,1018.02
2018-01-13T01:12:42.750Z,1018.03
2018-01-13T01:13:42.737Z,1018.02
2018-01-13T01:14:42.735Z,1018.05
2018-01-13T01:15:42.728Z,1018.02
2018-01-13T01:16:42.715Z,1018.09
2018-01-13T01:17:42.713Z,1018.08
2018-01-13T01:18:42.743Z,1018.11
2018-01-13T01:19:42.701Z,1018.08
2018-01-13T01:20:42.692Z,1018.11
2018-01-13T01:21:42.686Z,1018.05
2018-01-13T01:22:42.677Z,1018.12
2018-01-13T01:23:42.671Z,1018.17
2018-01-13T01:24:42.663Z,1018.19
2018-01-13T01:25:42.658Z,1018.19
2018-01-13T01:26:42.646Z,1018.17
2018-01-13T01:27:42.643Z,1018.19
2018-01-13T01:28:42.633Z,1018.20
2018-01-13T01:29:42.640Z,1018.19
2018-01-13T01:30:42.616Z,1018.21
2018-01-13T01:31:42.614Z,1018.22
2018-01-13T01:32:42.606Z,1018.23
2018-01-13T01:33:42.602Z,1018.25
2018-01-13T01:34:42.591Z,1018.24
2018-01-13T01:35:42.586Z,1018.25
2018-01-13T01:36:42.576Z,1018.27
2018-01-13T01:37:42.574Z,1018.27
2018-01-13T01:38:42.570Z,1018.25
2018-01-13T01:39:42.558Z,1018.22
2018-01-13T01:40:42.554Z,1018.22
2018-01-13T01:41:42.547Z,1018.22
2018-01-13T01:42:42.540Z,1018.22
2018-01-13T01:43:42.533Z,1018.27
2018-01-13T01:44:42.522Z,1018.20
2018-01-13T01:45:42.513Z,1018.22
2018-01-13T01:46:42.513Z,1018.22
2018-01-13T01:47:42.506Z,1018.19
2018-01-13T01:48:42.497Z,1018.22
2018-01-13T01:49:42.491Z,1018.21
2018-01-13T01:50:42.484Z,1018.24
2018-01-13T01:51:42.480Z,1018.20
2018-01-13T01:52:42.470Z,1018.22
2018-01-13T01:53:42.462Z,1018.22
2018-01-13T01:54:42.454Z,1018.22
2018-01-13T01:55:42.445Z,1018.19
2018-01-13T01:56:42.440Z,1018.22
2018-01-13T01:57:42.437Z,1018.21
2018-01-13T01:58:42.427Z,1018.22
2018-01-13T01:59:42.420Z,1018.17
2018-01-13T02:00:42.415Z,1018.22
2018-01-13T02:01:42.406Z,1018.18
2018-01-13T02:02:42.400Z,1018.19
2018-01-13T02:03:42.391Z,1018.20
2018-01-13T02:04:42.384Z,1018.18
2018-01-13T02:05:42.374Z,1018.22
2018-01-13T02:06:42.369Z,1018.20
2018-01-13T02:07:42.361Z,1018.16
2018-01-13T02:08:42.358Z,1018.16
2018-01-13T02:09:42.348Z,1018.14
2018-01-13T02:10:42.343Z,1018.17
2018-01-13T02:11:42.336Z,1018.16
2018-01-13T02:12:42.330Z,1018.14
2018-01-13T02:13:42.323Z,1018.15
2018-01-13T02:14:42.315Z,1018.13
2018-01-13T02:15:42.305Z,1018.14
2018-01-13T02:16:42.300Z,1018.12
2018-01-13T02:17:42.292Z,1018.14
2018-01-13T02:18:42.289Z,1018.14
2018-01-13T02:19:42.275Z,1018.16
2018-01-13T02:20:43.104Z,1018.15
2018-01-13T02:21:42.264Z,1018.16
2018-01-13T02:22:42.260Z,1018.18
2018-01-13T02:23:42.250Z,1018.14
2018-01-13T02:24:42.246Z,1018.12
2018-01-13T02:25:42.240Z,1018.12
2018-01-13T02:26:42.228Z,1018.11
2018-01-13T02:27:42.223Z,1018.09
2018-01-13T02:28:42.218Z,1018.09
2018-01-13T02:29:42.211Z,1018.09
2018-01-13T02:30:42.203Z,1018.10
2018-01-13T02:31:42.195Z,1018.11
2018-01-13T02:32:42.199Z,1018.14
2018-01-13T02:33:42.182Z,1018.14
2018-01-13T02:34:42.175Z,1018.14
2018-01-13T02:35:42.167Z,1018.15
2018-01-13T02:36:42.156Z,1018.14
2018-01-13T02:37:42.156Z,1018.13
2018-01-13T02:38:42.146Z,1018.16
2018-01-13T02:39:42.139Z,1018.12
2018-01-13T02:40:42.134Z,1018.12
2018-01-13T02:41:42.127Z,1018.12
2018-01-13T02:42:42.122Z,1018.11
2018-01-13T02:43:42.111Z,1018.10
2018-01-13T02:44:42.112Z,1018.10
2018-01-13T02:45:42.096Z,1018.12
2018-01-13T02:46:42.086Z,1018.08
2018-01-13T02:47:42.081Z,1018.10
2018-01-13T02:48:42.076Z,1018.09
2018-01-13T02:49:42.072Z,1018.12
2018-01-13T02:50:42.059Z,1018.07
2018-01-13T02:51:42.054Z,1018.11
2018-01-13T02:52:42.044Z,1018.08
2018-01-13T02:53:42.038Z,1018.06
2018-01-13T02:54:42.030Z,1018.09
2018-01-13T02:55:42.025Z,1018.11
2018-01-13T02:56:42.015Z,1018.09
2018-01-13T02:57:42.010Z,1018.08
2018-01-13T02:58:42.004Z,1018.09
2018-01-13T02:59:41.994Z,1018.08
2018-01-13T03:00:41.987Z,1018.04
2018-01-13T03:01:41.979Z,1018.04
2018-01-13T03:02:41.972Z,1018.07
2018-01-13T03:03:41.966Z,1018.03
2018-01-13T03:04:41.963Z,1018.00
2018-01-13T03:05:41.952Z,1018.03
2018-01-13T03:06:41.944Z,1018.00
2018-01-13T03:07:41.940Z,1017.94
2018-01-13T03:08:41.930Z,1017.96
2018-01-13T03:09:41.923Z,1017.99
2018-01-13T03:10:41.915Z,1018.01
2018-01-13T03:11:41.905Z,1017.98
2018-01-13T03:12:41.901Z,1017.95
2018-01-13T03:13:41.894Z,1017.96
2018-01-13T03:14:41.886Z,1017.94
2018-01-13T03:15:41.881Z,1017.96
2018-01-13T03:16:41.925Z,1017.94
2018-01-13T03:17:41.864Z,1017.94
2018-01-13T03:18:41.860Z,1017.93
2018-01-13T03:19:41.848Z,1017.88
2018-01-13T03:20:41.843Z,1017.90
2018-01-13T03:21:41.833Z,1017.86
2018-01-13T03:22:41.827Z,1017.88
2018-01-13T03:23:41.817Z,1017.88
2018-01-13T03:24:41.814Z,1017.87
2018-01-13T03:25:41.805Z,1017.92
2018-01-13T03:26:41.800Z,1017.91
2018-01-13T03:27:41.789Z,1017.89
2018-01-13T03:28:41.781Z,1017.90
2018-01-13T03:29:41.777Z,1017.90
2018-01-13T03:30:41.767Z,1017.90
2018-01-13T03:31:41.759Z,1017.84
2018-01-13T03:32:41.756Z,1017.88
2018-01-13T03:33:41.745Z,1017.89
2018-01-13T03:34:41.743Z,1017.88
2018-01-13T03:35:41.731Z,1017.87
2018-01-13T03:36:41.725Z,1017.85
2018-01-13T03:37:41.719Z,1017.85
2018-01-13T03:38:41.713Z,1017.88
2018-01-13T03:39:41.704Z,1017.87
2018-01-13T03:40:41.697Z,1017.89
2018-01-13T03:41:41.688Z,1017.88
2018-01-13T03:42:41.684Z,1017.88
2018-01-13T03:43:41.676Z,1017.87
2018-01-13T03:44:41.670Z,1017.85
2018-01-13T03:45:41.663Z,1017.89
2018-01-13T03:46:41.655Z,1017.91
2018-01-13T03:47:41.645Z,1017.83
2018-01-13T03:48:41.642Z,1017.86
2018-01-13T03:49:41.633Z,1017.82
2018-01-13T03:50:41.626Z,1017.83
2018-01-13T03:51:41.617Z,1017.78
2018-01-13T03:52:41.613Z,1017.82
2018-01-13T03:53:41.605Z,1017.81
2018-01-13T03:54:41.596Z,1017.82
2018-01-13T03:55:41.590Z,1017.76
2018-01-13T03:56:41.582Z,1017.82
2018-01-13T03:57:41.571Z,1017.75
2018-01-13T03:58:41.572Z,1017.73
2018-01-13T03:59:41.561Z,1017.76
2018-01-13T04:00:41.559Z,1017.77
2018-01-13T04:01:41.543Z,1017.73
2018-01-13T04:02:41.589Z,1017.70
2018-01-13T04:03:41.532Z,1017.71
2018-01-13T04:04:41.526Z,1017.73
2018-01-13T04:05:41.519Z,1017.72
2018-01-13T04:06:41.509Z,1017.73
2018-01-13T04:07:41.501Z,1017.68
2018-01-13T04:08:41.495Z,1017.66
2018-01-13T04:09:41.488Z,1017.66
2018-01-13T04:10:41.480Z,1017.66
2018-01-13T04:11:41.470Z,1017.68
2018-01-13T04:12:41.464Z,1017.69
2018-01-13T04:13:41.458Z,1017.67
2018-01-13T04:14:41.451Z,1017.67
2018-01-13T04:15:41.443Z,1017.68
2018-01-13T04:16:41.438Z,1017.70
2018-01-13T04:17:41.430Z,1017.71
2018-01-13T04:18:41.426Z,1017.68
2018-01-13T04:19:41.414Z,1017.66
2018-01-13T04:20:41.403Z,1017.68
2018-01-13T04:21:41.400Z,1017.69
2018-01-13T04:22:41.389Z,1017.66
2018-01-13T04:23:41.387Z,1017.63
2018-01-13T04:24:41.377Z,1017.64
2018-01-13T04:25:41.387Z,1017.63
2018-01-13T04:26:41.364Z,1017.63
2018-01-13T04:27:41.359Z,1017.68
2018-01-13T04:28:41.348Z,1017.65
2018-01-13T04:29:41.342Z,1017.67
2018-01-13T04:30:41.332Z,1017.62
2018-01-13T04:31:41.334Z,1017.63
2018-01-13T04:32:41.319Z,1017.66
2018-01-13T04:33:41.309Z,1017.63
2018-01-13T04:34:41.305Z,1017.63
2018-01-13T04:35:41.299Z,1017.65
2018-01-13T04:36:41.290Z,1017.66
2018-01-13T04:37:41.283Z,1017.70
2018-01-13T04:38:41.274Z,1017.68
2018-01-13T04:39:41.271Z,1017.66
2018-01-13T04:40:41.262Z,1017.63
2018-01-13T04:41:41.252Z,1017.65
2018-01-13T04:42:41.247Z,1017.62
2018-01-13T04:43:41.236Z,1017.63
2018-01-13T04:44:41.231Z,1017.61
2018-01-13T04:45:41.225Z,1017.60
2018-01-13T04:46:41.218Z,1017.58
2018-01-13T04:47:41.214Z,1017.59
2018-01-13T04:48:41.201Z,1017.60
2018-01-13T04:49:41.195Z,1017.61
2018-01-13T04:50:41.189Z,1017.64
2018-01-13T04:51:41.183Z,1017.56
2018-01-13T04:52:41.173Z,1017.60
2018-01-13T04:53:41.163Z,1017.57
2018-01-13T04:54:41.158Z,1017.56
2018-01-13T04:55:41.149Z,1017.57
2018-01-13T04:56:41.147Z,1017.59
2018-01-13T04:57:41.136Z,1017.60
2018-01-13T04:58:41.127Z,1017.64
2018-01-13T04:59:41.120Z,1017.62
2018-01-13T05:00:41.112Z,1017.63
2018-01-13T05:01:41.106Z,1017.67
2018-01-13T05:02:41.099Z,1017.64
2018-01-13T05:03:41.086Z,1017.61
2018-01-13T05:04:41.085Z,1017.61
2018-01-13T05:05:41.078Z,1017.57
2018-01-13T05:06:41.068Z,1017.57
2018-01-13T05:07:41.064Z,1017.56
2018-01-13T05:08:41.052Z,1017.56
2018-01-13T05:09:41.045Z,1017.56
2018-01-13T05:10:41.038Z,1017.56
2018-01-13T05:11:41.030Z,1017.59
2018-01-13T05:12:41.070Z,1017.57
2018-01-13T05:13:41.016Z,1017.55
2018-01-13T05:14:41.009Z,1017.58
2018-01-13T05:15:41.000Z,1017.61
2018-01-13T05:16:40.997Z,1017.59
2018-01-13T05:17:40.989Z,1017.61
2018-01-13T05:18:40.980Z,1017.61
2018-01-13T05:19:40.972Z,1017.62
2018-01-13T05:20:40.969Z,1017.61
2018-01-13T05:21:40.955Z,1017.63
2018-01-13T05:22:40.948Z,1017.65
2018-01-13T05:23:40.945Z,1017.65
2018-01-13T05:24:40.944Z,1017.65
2018-01-13T05:25:40.929Z,1017.65
2018-01-13T05:26:40.921Z,1017.67
2018-01-13T05:27:40.916Z,1017.67
2018-01-13T05:28:40.904Z,1017.69
2018-01-13T05:29:40.897Z,1017.68
2018-01-13T05:30:40.887Z,1017.66
2018-01-13T05:31:40.882Z,1017.68
2018-01-13T05:32:40.875Z,1017.67
2018-01-13T05:33:40.867Z,1017.69
2018-01-13T05:34:40.860Z,1017.64
2018-01-13T05:35:40.853Z,1017.71
2018-01-13T05:36:40.845Z,1017.68
2018-01-13T05:37:40.838Z,1017.69
2018-01-13T05:38:40.833Z,1017.66
2018-01-13T05:39:40.826Z,1017.68
2018-01-13T05:40:40.812Z,1017.67
2018-01-13T05:41:40.808Z,1017.64
2018-01-13T05:42:40.802Z,1017.67
2018-01-13T05:43:40.796Z,1017.64
2018-01-13T05:44:40.783Z,1017.64
2018-01-13T05:45:40.781Z,1017.64
2018-01-13T05:46:40.774Z,1017.58
2018-01-13T05:47:40.763Z,1017.60
2018-01-13T05:48:40.756Z,1017.60
2018-01-13T05:49:40.750Z,1017.57
2018-01-13T05:50:40.740Z,1017.53
2018-01-13T05:51:40.734Z,1017.53
2018-01-13T05:52:40.726Z,1017.54
2018-01-13T05:53:40.718Z,1017.58
2018-01-13T05:54:40.710Z,1017.57
2018-01-13T05:55:40.704Z,1017.57
2018-01-13T05:56:40.704Z,1017.57
2018-01-13T05:57:40.691Z,1017.60
2018-01-13T05:58:40.679Z,1017.56
2018-01-13T05:59:40.673Z,1017.60
2018-01-13T06:00:40.664Z,1017.56
2018-01-13T06:01:40.656Z,1017.58
2018-01-13T06:02:40.651Z,1017.57
2018-01-13T06:03:40.643Z,1017.58
2018-01-13T06:04:40.637Z,1017.58
2018-01-13T06:05:40.628Z,1017.56
2018-01-13T06:06:40.622Z,1017.55
2018-01-13T06:07:40.615Z,1017.54
2018-01-13T06:08:40.606Z,1017.56
2018-01-13T06:09:40.606Z,1017.57
2018-01-13T06:10:40.592Z,1017.60
2018-01-13T06:11:40.581Z,1017.55
2018-01-13T06:12:40.575Z,1017.57
2018-01-13T06:13:40.566Z,1017.58
2018-01-13T06:14:40.561Z,1017.55
2018-01-13T06:15:40.553Z,1017.50
2018-01-13T06:16:40.548Z,1017.55
2018-01-13T06:17:40.537Z,1017.53
2018-01-13T06:18:40.529Z,1017.52
2018-01-13T06:19:40.524Z,1017.53
2018-01-13T06:20:40.517Z,1017.50
2018-01-13T06:21:40.506Z,1017.48
2018-01-13T06:22:40.498Z,1017.51
2018-01-13T06:23:40.536Z,1017.51
2018-01-13T06:24:40.485Z,1017.53
2018-01-13T06:25:40.475Z,1017.51
2018-01-13T06:26:40.471Z,1017.53
2018-01-13T06:27:40.463Z,1017.50
2018-01-13T06:28:40.454Z,1017.50
2018-01-13T06:29:40.447Z,1017.54
2018-01-13T06:30:40.443Z,1017.54
2018-01-13T06:31:40.436Z,1017.54
2018-01-13T06:32:40.428Z,1017.55
2018-01-13T06:33:40.417Z,1017.51
2018-01-13T06:34:40.412Z,1017.53
2018-01-13T06:35:40.401Z,1017.49
2018-01-13T06:36:40.396Z,1017.50
2018-01-13T06:37:40.386Z,1017.49
2018-01-13T06:38:40.376Z,1017.48
2018-01-13T06:39:40.374Z,1017.45
2018-01-13T06:40:40.367Z,1017.45
2018-01-13T06:41:40.360Z,1017.41
2018-01-13T06:42:40.353Z,1017.46
2018-01-13T06:43:40.342Z,1017.43
2018-01-13T06:44:40.334Z,1017.44
2018-01-13T06:45:40.327Z,1017.40
2018-01-13T06:46:40.318Z,1017.41
2018-01-13T06:47:40.312Z,1017.37
2018-01-13T06:48:40.305Z,1017.39
2018-01-13T06:49:40.297Z,1017.39
2018-01-13T06:50:40.293Z,1017.38
2018-01-13T06:51:40.282Z,1017.35
2018-01-13T06:52:40.276Z,1017.33
2018-01-13T06:53:40.267Z,1017.35
2018-01-13T06:54:40.260Z,1017.35
2018-01-13T06:55:40.250Z,1017.36
2018-01-13T06:56:40.242Z,1017.38
2018-01-13T06:57:40.239Z,1017.35
2018-01-13T06:58:40.227Z,1017.32
2018-01-13T06:59:40.222Z,1017.33
2018-01-13T07:00:40.212Z,1017.34
2018-01-13T07:01:40.207Z,1017.35
2018-01-13T07:02:40.194Z,1017.37
2018-01-13T07:03:40.192Z,1017.35
2018-01-13T07:04:40.186Z,1017.36
2018-01-13T07:05:40.176Z,1017.36
2018-01-13T07:06:40.166Z,1017.42
2018-01-13T07:07:40.162Z,1017.40
2018-01-13T07:08:40.151Z,1017.45
2018-01-13T07:09:40.149Z,1017.43
2018-01-13T07:10:40.158Z,1017.42
2018-01-13T07:11:40.132Z,1017.45
2018-01-13T07:12:40.121Z,1017.42
2018-01-13T07:13:40.115Z,1017.46
2018-01-13T07:14:40.112Z,1017.42
2018-01-13T07:15:40.105Z,1017.42
2018-01-13T07:16:40.137Z,1017.45
2018-01-13T07:17:40.087Z,1017.44
2018-01-13T07:18:40.078Z,1017.48
2018-01-13T07:19:40.070Z,1017.50
2018-01-13T07:20:40.062Z,1017.45
2018-01-13T07:21:40.052Z,1017.48
2018-01-13T07:22:40.050Z,1017.42
2018-01-13T07:23:40.038Z,1017.44
2018-01-13T07:24:40.033Z,1017.47
2018-01-13T07:25:40.025Z,1017.48
2018-01-13T07:26:40.023Z,1017.48
2018-01-13T07:27:40.007Z,1017.48
2018-01-13T07:28:40.004Z,1017.49
2018-01-13T07:29:39.996Z,1017.45
2018-01-13T07:30:39.989Z,1017.43
2018-01-13T07:31:39.982Z,1017.45
2018-01-13T07:32:39.976Z,1017.49
2018-01-13T07:33:39.963Z,1017.52
2018-01-13T07:34:39.958Z,1017.50
2018-01-13T07:35:39.949Z,1017.52
2018-01-13T07:36:39.947Z,1017.51
2018-01-13T07:37:39.934Z,1017.51
2018-01-13T07:38:39.927Z,1017.53
2018-01-13T07:39:39.919Z,1017.57
2018-01-13T07:40:39.912Z,1017.50
2018-01-13T07:41:39.937Z,1017.53
2018-01-13T07:42:39.898Z,1017.54
2018-01-13T07:43:39.889Z,1017.50
2018-01-13T07:44:39.882Z,1017.47
2018-01-13T07:45:39.876Z,1017.53
2018-01-13T07:46:39.867Z,1017.52
2018-01-13T07:47:39.862Z,1017.55
2018-01-13T07:48:39.849Z,1017.52
2018-01-13T07:49:39.846Z,1017.53
2018-01-13T07:50:39.843Z,1017.52
2018-01-13T07:51:39.834Z,1017.55
2018-01-13T07:52:39.822Z,1017.52
2018-01-13T07:53:39.813Z,1017.51
2018-01-13T07:54:39.808Z,1017.55
2018-01-13T07:55:39.799Z,1017.56
2018-01-13T07:56:39.791Z,1017.54
2018-01-13T07:57:39.832Z,1017.52
2018-01-13T07:58:39.778Z,1017.49
2018-01-13T07:59:39.775Z,1017.47
2018-01-13T08:00:39.761Z,1017.51
2018-01-13T08:01:39.757Z,1017.51
2018-01-13T08:02:39.748Z,1017.48
2018-01-13T08:03:39.738Z,1017.46
2018-01-13T08:04:39.730Z,1017.46
2018-01-13T08:05:39.722Z,1017.47
2018-01-13T08:06:39.715Z,1017.46
2018-01-13T08:07:39.710Z,1017.49
2018-01-13T08:08:39.698Z,1017.53
2018-01-13T08:09:39.696Z,1017.47
2018-01-13T08:10:39.686Z,1017.43
2018-01-13T08:11:39.679Z,1017.41
2018-01-13T08:12:39.671Z,1017.43
2018-01-13T08:13:39.666Z,1017.47
2018-01-13T08:14:39.659Z,1017.42
2018-01-13T08:15:39.648Z,1017.40
2018-01-13T08:16:39.640Z,1017.40
2018-01-13T08:17:39.636Z,1017.42
2018-01-13T08:18:39.626Z,1017.45
2018-01-13T08:19:39.617Z,1017.43
2018-01-13T08:20:39.608Z,1017.46
2018-01-13T08:21:39.607Z,1017.48
2018-01-13T08:22:39.596Z,1017.46
2018-01-13T08:23:39.592Z,1017.49
2018-01-13T08:24:39.580Z,1017.45
2018-01-13T08:25:39.569Z,1017.45
2018-01-13T08:26:39.570Z,1017.48
2018-01-13T08:27:39.569Z,1017.50
2018-01-13T08:28:39.541Z,1017.50
2018-01-13T08:29:39.540Z,1017.50
2018-01-13T08:30:39.534Z,1017.51
2018-01-13T08:31:39.528Z,1017.48
2018-01-13T08:32:39.518Z,1017.52
2018-01-13T08:33:39.513Z,1017.48
2018-01-13T08:34:39.505Z,1017.45
2018-01-13T08:35:39.496Z,1017.48
2018-01-13T08:36:39.490Z,1017.49
2018-01-13T08:37:39.481Z,1017.43
2018-01-13T08:38:39.473Z,1017.46
2018-01-13T08:39:39.467Z,1017.42
2018-01-13T08:40:39.464Z,1017.47
2018-01-13T08:41:39.454Z,1017.47
2018-01-13T08:42:39.446Z,1017.44
2018-01-13T08:43:39.438Z,1017.46
2018-01-13T08:44:39.427Z,1017.43
2018-01-13T08:45:39.420Z,1017.47
2018-01-13T08:46:39.414Z,1017.39
2018-01-13T08:47:39.407Z,1017.42
2018-01-13T08:48:39.399Z,1017.43
2018-01-13T08:49:39.392Z,1017.44
2018-01-13T08:50:39.387Z,1017.44
2018-01-13T08:51:39.377Z,1017.42
2018-01-13T08:52:39.370Z,1017.41
2018-01-13T08:53:39.364Z,1017.42
2018-01-13T08:54:39.355Z,1017.44
2018-01-13T08:55:39.343Z,1017.44
2018-01-13T08:56:39.340Z,1017.39
2018-01-13T08:57:39.334Z,1017.46
2018-01-13T08:58:39.330Z,1017.43
2018-01-13T08:59:39.321Z,1017.44
2018-01-13T09:00:39.321Z,1017.43
2018-01-13T09:01:39.303Z,1017.41
2018-01-13T09:02:39.296Z,1017.41
2018-01-13T09:03:39.285Z,1017.38
2018-01-13T09:04:39.280Z,1017.40
2018-01-13T09:05:39.269Z,1017.41
2018-01-13T09:06:39.267Z,1017.41
2018-01-13T09:07:39.260Z,1017.38
2018-01-13T09:08:39.251Z,1017.39
2018-01-13T09:09:39.244Z,1017.42
2018-01-13T09:10:39.235Z,1017.41
2018-01-13T09:11:39.226Z,1017.40
2018-01-13T09:12:39.244Z,1017.40
2018-01-13T09:13:39.213Z,1017.41
2018-01-13T09:14:39.206Z,1017.40
2018-01-13T09:15:39.260Z,1017.40
2018-01-13T09:16:39.187Z,1017.40
2018-01-13T09:17:39.185Z,1017.39
2018-01-13T09:18:39.177Z,1017.41
2018-01-13T09:19:39.164Z,1017.45
2018-01-13T09:20:39.161Z,1017.44
2018-01-13T09:21:39.156Z,1017.41
2018-01-13T09:22:39.147Z,1017.44
2018-01-13T09:23:39.138Z,1017.43
2018-01-13T09:24:39.136Z,1017.42
2018-01-13T09:25:39.122Z,1017.42
2018-01-13T09:26:39.127Z,1017.41
2018-01-13T09:27:39.139Z,1017.41
2018-01-13T09:28:39.102Z,1017.41
2018-01-13T09:29:39.128Z,1017.37
2018-01-13T09:30:39.086Z,1017.41
2018-01-13T09:31:39.078Z,1017.38
2018-01-13T09:32:39.064Z,1017.40
2018-01-13T09:33:39.070Z,1017.41
2018-01-13T09:34:39.060Z,1017.40
2018-01-13T09:35:39.048Z,1017.39
2018-01-13T09:36:39.041Z,1017.43
2018-01-13T09:37:39.033Z,1017.41
2018-01-13T09:38:39.041Z,1017.43
2018-01-13T09:39:39.041Z,1017.45
2018-01-13T09:40:39.011Z,1017.42
2018-01-13T09:41:39.007Z,1017.43
2018-01-13T09:42:39.026Z,1017.44
2018-01-13T09:43:38.989Z,1017.44
2018-01-13T09:44:38.980Z,1017.44
2018-01-13T09:45:38.984Z,1017.44
2018-01-13T09:46:38.964Z,1017.45
2018-01-13T09:47:38.958Z,1017.43
2018-01-13T09:48:38.959Z,1017.44
2018-01-13T09:49:38.945Z,1017.47
2018-01-13T09:50:38.935Z,1017.48
2018-01-13T09:51:38.932Z,1017.49
2018-01-13T09:52:38.924Z,1017.52
2018-01-13T09:53:38.918Z,1017.53
2018-01-13T09:54:38.911Z,1017.56
2018-01-13T09:55:38.904Z,1017.51
2018-01-13T09:56:38.889Z,1017.52
2018-01-13T09:57:38.889Z,1017.56
2018-01-13T09:58:38.877Z,1017.54
2018-01-13T09:59:38.875Z,1017.54
2018-01-13T10:00:38.867Z,1017.55
2018-01-13T10:01:38.857Z,1017.50
2018-01-13T10:02:38.848Z,1017.51
2018-01-13T10:03:38.843Z,1017.44
2018-01-13T10:04:38.838Z,1017.49
2018-01-13T10:05:38.827Z,1017.47
2018-01-13T10:06:38.840Z,1017.46
2018-01-13T10:07:38.813Z,1017.43
2018-01-13T10:08:38.804Z,1017.47
2018-01-13T10:09:38.800Z,1017.47
2018-01-13T10:10:38.791Z,1017.49
2018-01-13T10:11:38.782Z,1017.45
2018-01-13T10:12:38.774Z,1017.48
2018-01-13T10:13:38.769Z,1017.47
2018-01-13T10:14:38.761Z,1017.44
2018-01-13T10:15:38.753Z,1017.44
2018-01-13T10:16:38.744Z,1017.45
2018-01-13T10:17:38.740Z,1017.45
2018-01-13T10:18:38.731Z,1017.40
2018-01-13T10:19:38.723Z,1017.36
2018-01-13T10:20:38.717Z,1017.40
2018-01-13T10:21:38.706Z,1017.40
2018-01-13T10:22:38.702Z,1017.41
2018-01-13T10:23:38.692Z,1017.46
2018-01-13T10:24:38.685Z,1017.41
2018-01-13T10:25:38.679Z,1017.42
2018-01-13T10:26:38.671Z,1017.40
2018-01-13T10:27:38.665Z,1017.39
2018-01-13T10:28:38.661Z,1017.40
2018-01-13T10:29:38.650Z,1017.41
2018-01-13T10:30:38.647Z,1017.37
2018-01-13T10:31:38.632Z,1017.35
2018-01-13T10:32:38.629Z,1017.33
2018-01-13T10:33:38.621Z,1017.34
2018-01-13T10:34:38.637Z,1017.32
2018-01-13T10:35:38.606Z,1017.33
2018-01-13T10:36:38.594Z,1017.32
2018-01-13T10:37:38.589Z,1017.34
2018-01-13T10:38:38.585Z,1017.30
2018-01-13T10:39:38.576Z,1017.28
2018-01-13T10:40:38.570Z,1017.26
2018-01-13T10:41:38.559Z,1017.28
2018-01-13T10:42:38.555Z,1017.24
2018-01-13T10:43:38.547Z,1017.27
2018-01-13T10:44:38.544Z,1017.21
2018-01-13T10:45:38.538Z,1017.21
2018-01-13T10:46:38.539Z,1017.26
2018-01-13T10:47:38.516Z,1017.23
2018-01-13T10:48:38.509Z,1017.27
2018-01-13T10:49:38.505Z,1017.26
2018-01-13T10:50:38.499Z,1017.23
2018-01-13T10:51:38.488Z,1017.20
2018-01-13T10:52:38.483Z,1017.18
2018-01-13T10:53:38.476Z,1017.21
2018-01-13T10:54:38.469Z,1017.21
2018-01-13T10:55:38.463Z,1017.19
2018-01-13T10:56:38.453Z,1017.22
2018-01-13T10:57:38.450Z,1017.21
2018-01-13T10:58:38.439Z,1017.18
2018-01-13T10:59:38.435Z,1017.14
2018-01-13T11:00:38.428Z,1017.14
2018-01-13T11:01:38.417Z,1017.18
2018-01-13T11:02:38.412Z,1017.13
2018-01-13T11:03:38.410Z,1017.08
2018-01-13T11:04:38.395Z,1017.02
2018-01-13T11:05:38.390Z,1017.02
2018-01-13T11:06:38.417Z,1017.04
2018-01-13T11:07:38.371Z,1017.04
2018-01-13T11:08:38.364Z,1017.00
2018-01-13T11:09:38.362Z,1016.95
2018-01-13T11:10:38.356Z,1016.93
2018-01-13T11:11:38.345Z,1016.90
2018-01-13T11:12:38.348Z,1016.89
2018-01-13T11:13:38.333Z,1016.86
2018-01-13T11:14:38.329Z,1016.85
2018-01-13T11:15:38.356Z,1016.84
2018-01-13T11:16:38.318Z,1016.87
2018-01-13T11:17:38.308Z,1016.84
2018-01-13T11:18:38.297Z,1016.82
2018-01-13T11:19:38.292Z,1016.79
2018-01-13T11:20:39.226Z,1016.79
2018-01-13T11:21:38.271Z,1016.76
2018-01-13T11:22:38.269Z,1016.78
2018-01-13T11:23:38.267Z,1016.76
2018-01-13T11:24:38.259Z,1016.77
2018-01-13T11:25:38.727Z,1016.72
2018-01-13T11:26:38.249Z,1016.71
2018-01-13T11:27:38.238Z,1016.72
2018-01-13T11:28:38.229Z,1016.69
2018-01-13T11:29:38.228Z,1016.67
2018-01-13T11:30:38.219Z,1016.64
2018-01-13T11:31:38.211Z,1016.65
2018-01-13T11:32:38.208Z,1016.66
2018-01-13T11:33:38.198Z,1016.68
2018-01-13T11:34:38.196Z,1016.69
2018-01-13T11:35:38.185Z,1016.67
2018-01-13T11:36:38.176Z,1016.69
2018-01-13T11:37:38.172Z,1016.69
2018-01-13T11:38:38.166Z,1016.75
2018-01-13T11:39:38.158Z,1016.73
2018-01-13T11:40:38.190Z,1016.71
2018-01-13T11:41:38.142Z,1016.71
2018-01-13T11:42:38.140Z,1016.69
2018-01-13T11:43:38.175Z,1016.70
2018-01-13T11:44:38.129Z,1016.64
2018-01-13T11:45:38.118Z,1016.66
2018-01-13T11:46:38.112Z,1016.62
2018-01-13T11:47:38.103Z,1016.64
2018-01-13T11:48:38.099Z,1016.61
2018-01-13T11:49:38.093Z,1016.60
2018-01-13T11:50:38.086Z,1016.53
2018-01-13T11:51:38.080Z,1016.58
2018-01-13T11:52:38.070Z,1016.62
2018-01-13T11:53:38.066Z,1016.58
2018-01-13T11:54:38.059Z,1016.58
2018-01-13T11:55:38.054Z,1016.50
2018-01-13T11:56:38.046Z,1016.55
2018-01-13T11:57:38.038Z,1016.56
2018-01-13T11:58:38.033Z,1016.53
2018-01-13T11:59:38.023Z,1016.53
2018-01-13T12:00:38.016Z,1016.53
2018-01-13T12:01:38.014Z,1016.46
2018-01-13T12:02:38.007Z,1016.48
2018-01-13T12:03:37.996Z,1016.46
2018-01-13T12:04:37.992Z,1016.42
2018-01-13T12:05:37.986Z,1016.41